• Join FlightAware (Why Join?)
  • Login
  • US Flag 
09:48PM EDT


 

Airport Tracker/Info


-or-


 

Live Flight TrackerFlight Track Log ✈ ASQ6041 ✈ 06-Jul-2013 ✈ KDEN - KGUC

Flight Track Log - Related Links

Times and Time Zones

All times are in EDT time to prevent confusion due to time zone crossing. See the ASQ6041 flight status page for this flight to view local times or setup timezone preferences in your user account.

Time Position Orientation Groundspeed Altitude Reporting Facility
EDT Latitude Longitude Course Direction KTS MPH feet Rate Location/Type
01:10PM 39.8411 -104.7603 249° West 169 194 7,000  Level Denver Center
01:11PM 39.8192 -104.8353 249° West 219 252 9,200 1,860 Climbing Denver Center
01:12PM 39.7942 -104.9258 250° West 249 287 10,900 1,560 Climbing Denver Center
01:13PM 39.7678 -105.0250 251° West 288 331 12,500 1,860 Climbing Denver Center
01:14PM 39.7272 -105.1364 245° Southwest 314 361 14,800 1,980 Climbing Denver Center
01:15PM 39.6900 -105.2397 245° Southwest 314 361 16,700 1,620 Climbing Denver Center
01:16PM 39.6475 -105.3578 245° Southwest 337 388 18,200 1,500 Climbing Denver Center
01:17PM 39.6086 -105.4678 245° Southwest 338 389 19,900 1,740 Climbing Denver Center
01:18PM 39.5633 -105.5881 244° Southwest 345 397 21,800 1,740 Climbing Denver Center
01:19PM 39.5283 -105.7017 248° West 339 390 23,500 1,560 Climbing Denver Center
01:20PM 39.4997 -105.8083 251° West 339 390 25,100 1,200 Climbing Denver Center
01:21PM 39.4633 -105.9467 251° West 345 397 26,000 420 Climbing Denver Center
01:22PM 39.4264 -106.0758 250° West 387 445 26,000  Level Denver Center
01:23PM 39.3936 -106.1806 248° West 398 458 26,000  Level Denver Center
01:24PM 39.2697 -106.3011 217° Southwest 427 491 26,000 -300 Level Denver Center
01:25PM 39.1747 -106.3883 215° Southwest 432 497 25,400 -1,860 Descending Denver Center
01:26PM 39.0628 -106.4881 215° Southwest 435 501 22,200 -2,880 Descending Denver Center
01:27PM 38.9828 -106.5611 215° Southwest 419 482 19,400 -2,460 Descending Denver Center
01:28PM 38.8769 -106.6572 215° Southwest 397 457 17,100 -1,500 Descending Denver Center
01:29PM 38.7989 -106.6964 201° Southwest 316 364 16,300 -480 Descending Denver Center
01:30PM 38.7311 -106.7297 201° Southwest 272 313 16,200 -120 Descending Denver Center